sensor_id;sensor_type;location;lat;lon;timestamp;pressure;altitude;pressure_sealevel;temperature;humidity
74960;BME280;63518;49.572;1.106;2022-12-18T00:02:19;100310.84;;;-5.94;76.17
74960;BME280;63518;49.572;1.106;2022-12-18T00:04:59;100302.44;;;-5.91;76.85
74960;BME280;63518;49.572;1.106;2022-12-18T00:07:36;100311.03;;;-5.88;75.71
74960;BME280;63518;49.572;1.106;2022-12-18T00:10:40;100303.13;;;-6.05;75.71
74960;BME280;63518;49.572;1.106;2022-12-18T00:13:17;100306.81;;;-6.06;76.19
74960;BME280;63518;49.572;1.106;2022-12-18T00:15:45;100297.59;;;-6.12;77.65
74960;BME280;63518;49.572;1.106;2022-12-18T00:18:20;100308.00;;;-6.01;75.75
74960;BME280;63518;49.572;1.106;2022-12-18T00:21:15;100301.09;;;-5.87;75.00
74960;BME280;63518;49.572;1.106;2022-12-18T00:23:44;100312.19;;;-5.90;76.53
74960;BME280;63518;49.572;1.106;2022-12-18T00:26:23;100313.00;;;-6.22;76.52
74960;BME280;63518;49.572;1.106;2022-12-18T00:29:30;100310.50;;;-5.83;75.23
74960;BME280;63518;49.572;1.106;2022-12-18T00:32:15;100291.69;;;-5.91;76.25
74960;BME280;63518;49.572;1.106;2022-12-18T00:35:26;100310.00;;;-5.95;76.66
74960;BME280;63518;49.572;1.106;2022-12-18T00:38:14;100286.81;;;-6.45;77.98
74960;BME280;63518;49.572;1.106;2022-12-18T00:41:07;100300.28;;;-6.20;78.73
74960;BME280;63518;49.572;1.106;2022-12-18T00:43:57;100296.03;;;-6.31;78.01
74960;BME280;63518;49.572;1.106;2022-12-18T00:46:35;100282.59;;;-5.90;76.95
74960;BME280;63518;49.572;1.106;2022-12-18T00:49:06;100277.75;;;-6.35;78.92
74960;BME280;63518;49.572;1.106;2022-12-18T00:54:27;100263.97;;;-6.24;77.08
74960;BME280;63518;49.572;1.106;2022-12-18T00:57:05;100294.56;;;-6.17;76.85
74960;BME280;63518;49.572;1.106;2022-12-18T00:59:39;100296.03;;;-6.31;77.60
74960;BME280;63518;49.572;1.106;2022-12-18T01:02:06;100295.75;;;-6.11;78.03
74960;BME280;63518;49.572;1.106;2022-12-18T01:04:36;100294.22;;;-5.98;77.48
74960;BME280;63518;49.572;1.106;2022-12-18T01:07:05;100276.38;;;-5.82;75.45
74960;BME280;63518;49.572;1.106;2022-12-18T01:09:42;100267.50;;;-5.91;76.68
74960;BME280;63518;49.572;1.106;2022-12-18T01:12:22;100275.06;;;-5.78;75.05
74960;BME280;63518;49.572;1.106;2022-12-18T01:14:51;100278.75;;;-5.71;74.64
74960;BME280;63518;49.572;1.106;2022-12-18T01:17:20;100266.16;;;-5.95;74.33
74960;BME280;63518;49.572;1.106;2022-12-18T01:19:47;100284.16;;;-6.12;75.17
74960;BME280;63518;49.572;1.106;2022-12-18T01:22:22;100273.41;;;-6.20;75.09
74960;BME280;63518;49.572;1.106;2022-12-18T01:24:52;100263.16;;;-6.08;74.71
74960;BME280;63518;49.572;1.106;2022-12-18T01:27:20;100277.25;;;-6.15;74.83
74960;BME280;63518;49.572;1.106;2022-12-18T01:29:51;100269.88;;;-6.21;74.84
74960;BME280;63518;49.572;1.106;2022-12-18T01:32:18;100242.00;;;-6.36;75.57
74960;BME280;63518;49.572;1.106;2022-12-18T01:34:46;100246.69;;;-6.38;76.71
74960;BME280;63518;49.572;1.106;2022-12-18T01:37:14;100241.47;;;-6.39;76.64
74960;BME280;63518;49.572;1.106;2022-12-18T01:39:52;100242.84;;;-6.27;76.51
74960;BME280;63518;49.572;1.106;2022-12-18T01:42:22;100225.03;;;-6.45;76.94
74960;BME280;63518;49.572;1.106;2022-12-18T01:47:49;100227.03;;;-6.30;77.01
74960;BME280;63518;49.572;1.106;2022-12-18T01:50:36;100220.16;;;-6.25;76.97
74960;BME280;63518;49.572;1.106;2022-12-18T01:53:15;100217.31;;;-6.23;75.87
74960;BME280;63518;49.572;1.106;2022-12-18T01:55:58;100179.72;;;-6.48;76.43
74960;BME280;63518;49.572;1.106;2022-12-18T01:58:51;100199.16;;;-6.37;76.00
74960;BME280;63518;49.572;1.106;2022-12-18T02:01:39;100205.72;;;-6.24;75.57
74960;BME280;63518;49.572;1.106;2022-12-18T02:04:23;100218.50;;;-6.42;76.76
74960;BME280;63518;49.572;1.106;2022-12-18T02:07:20;100203.88;;;-6.23;75.76
74960;BME280;63518;49.572;1.106;2022-12-18T02:10:30;100205.06;;;-6.26;75.75
74960;BME280;63518;49.572;1.106;2022-12-18T02:19:39;100211.44;;;-6.10;75.87
74960;BME280;63518;49.572;1.106;2022-12-18T02:22:39;100214.78;;;-6.08;76.19
74960;BME280;63518;49.572;1.106;2022-12-18T02:29:11;100199.50;;;-6.24;76.09
74960;BME280;63518;49.572;1.106;2022-12-18T02:31:36;100186.25;;;-6.26;76.60
74960;BME280;63518;49.572;1.106;2022-12-18T02:34:13;100214.63;;;-6.48;76.47
74960;BME280;63518;49.572;1.106;2022-12-18T02:36:46;100218.31;;;-6.49;80.23
74960;BME280;63518;49.572;1.106;2022-12-18T02:39:29;100209.06;;;-6.38;78.89
74960;BME280;63518;49.572;1.106;2022-12-18T02:41:59;100192.81;;;-6.36;78.45
74960;BME280;63518;49.572;1.106;2022-12-18T02:44:51;100220.13;;;-6.00;76.17
74960;BME280;63518;49.572;1.106;2022-12-18T02:47:22;100207.56;;;-6.16;75.43
74960;BME280;63518;49.572;1.106;2022-12-18T02:52:34;100212.88;;;-5.83;73.97
74960;BME280;63518;49.572;1.106;2022-12-18T02:58:11;100208.75;;;-6.43;78.06
74960;BME280;63518;49.572;1.106;2022-12-18T03:01:02;100208.06;;;-6.12;76.52
74960;BME280;63518;49.572;1.106;2022-12-18T03:03:47;100205.91;;;-6.25;77.82
74960;BME280;63518;49.572;1.106;2022-12-18T03:06:29;100186.25;;;-6.26;78.88
74960;BME280;63518;49.572;1.106;2022-12-18T03:09:11;100181.72;;;-6.25;77.42
74960;BME280;63518;49.572;1.106;2022-12-18T03:11:48;100192.63;;;-6.84;78.94
74960;BME280;63518;49.572;1.106;2022-12-18T03:14:40;100205.53;;;-6.71;79.93
74960;BME280;63518;49.572;1.106;2022-12-18T03:17:16;100177.66;;;-6.05;78.33
74960;BME280;63518;49.572;1.106;2022-12-18T03:19:54;100194.25;;;-5.93;77.14
74960;BME280;63518;49.572;1.106;2022-12-18T03:22:33;100175.69;;;-6.35;77.70
74960;BME280;63518;49.572;1.106;2022-12-18T03:25:13;100187.44;;;-6.20;78.68
74960;BME280;63518;49.572;1.106;2022-12-18T03:27:51;100199.13;;;-5.80;77.42
74960;BME280;63518;49.572;1.106;2022-12-18T03:30:24;100183.22;;;-6.72;78.99
74960;BME280;63518;49.572;1.106;2022-12-18T03:33:14;100192.25;;;-5.99;77.03
74960;BME280;63518;49.572;1.106;2022-12-18T03:36:03;100154.75;;;-5.84;76.55
74960;BME280;63518;49.572;1.106;2022-12-18T03:38:43;100168.59;;;-6.04;76.29
74960;BME280;63518;49.572;1.106;2022-12-18T03:44:20;100171.31;;;-5.56;76.42
74960;BME280;63518;49.572;1.106;2022-12-18T03:49:38;100159.50;;;-5.95;78.78
74960;BME280;63518;49.572;1.106;2022-12-18T03:52:36;100142.06;;;-6.15;78.88
74960;BME280;63518;49.572;1.106;2022-12-18T03:55:13;100127.25;;;-5.95;78.44
74960;BME280;63518;49.572;1.106;2022-12-18T03:57:42;100133.97;;;-6.07;77.27
74960;BME280;63518;49.572;1.106;2022-12-18T04:00:19;100126.63;;;-6.29;79.27
74960;BME280;63518;49.572;1.106;2022-12-18T04:02:55;100113.91;;;-6.44;78.68
74960;BME280;63518;49.572;1.106;2022-12-18T04:05:47;100114.09;;;-6.53;79.03
74960;BME280;63518;49.572;1.106;2022-12-18T04:08:19;100164.53;;;-6.00;80.32
74960;BME280;63518;49.572;1.106;2022-12-18T04:11:07;100147.81;;;-6.34;80.10
74960;BME280;63518;49.572;1.106;2022-12-18T04:13:38;100139.50;;;-6.00;77.83
74960;BME280;63518;49.572;1.106;2022-12-18T04:16:12;100147.53;;;-5.92;79.56
74960;BME280;63518;49.572;1.106;2022-12-18T04:18:47;100145.41;;;-5.97;79.63
74960;BME280;63518;49.572;1.106;2022-12-18T04:21:18;100145.31;;;-6.44;81.33
74960;BME280;63518;49.572;1.106;2022-12-18T04:23:51;100148.19;;;-5.74;78.85
74960;BME280;63518;49.572;1.106;2022-12-18T04:26:20;100141.72;;;-6.04;79.48
74960;BME280;63518;49.572;1.106;2022-12-18T04:29:00;100126.59;;;-5.97;78.42
74960;BME280;63518;49.572;1.106;2022-12-18T04:31:34;100147.53;;;-5.84;78.18
74960;BME280;63518;49.572;1.106;2022-12-18T04:34:06;100145.16;;;-6.59;80.65
74960;BME280;63518;49.572;1.106;2022-12-18T04:36:36;100117.25;;;-6.33;79.36
74960;BME280;63518;49.572;1.106;2022-12-18T04:39:07;100143.94;;;-6.32;81.47
74960;BME280;63518;49.572;1.106;2022-12-18T04:41:35;100141.25;;;-6.32;81.20
74960;BME280;63518;49.572;1.106;2022-12-18T04:44:10;100126.84;;;-6.47;82.17
74960;BME280;63518;49.572;1.106;2022-12-18T04:46:39;100140.22;;;-6.15;79.92
74960;BME280;63518;49.572;1.106;2022-12-18T04:49:08;100128.31;;;-6.12;79.83
74960;BME280;63518;49.572;1.106;2022-12-18T04:51:40;100138.38;;;-6.30;79.43
74960;BME280;63518;49.572;1.106;2022-12-18T04:54:09;100132.31;;;-6.16;81.40
74960;BME280;63518;49.572;1.106;2022-12-18T04:56:38;100127.28;;;-6.11;79.65
74960;BME280;63518;49.572;1.106;2022-12-18T04:59:06;100149.94;;;-5.97;79.90
74960;BME280;63518;49.572;1.106;2022-12-18T05:01:33;100145.53;;;-5.98;79.27
74960;BME280;63518;49.572;1.106;2022-12-18T05:04:02;100150.94;;;-6.06;79.45
74960;BME280;63518;49.572;1.106;2022-12-18T05:06:38;100137.66;;;-6.00;79.21
74960;BME280;63518;49.572;1.106;2022-12-18T05:09:06;100143.03;;;-6.00;79.34
74960;BME280;63518;49.572;1.106;2022-12-18T05:11:41;100142.31;;;-5.85;79.28
74960;BME280;63518;49.572;1.106;2022-12-18T05:14:10;100152.81;;;-6.23;79.25
74960;BME280;63518;49.572;1.106;2022-12-18T05:16:42;100154.94;;;-5.94;78.87
74960;BME280;63518;49.572;1.106;2022-12-18T05:19:10;100146.56;;;-5.99;80.32
74960;BME280;63518;49.572;1.106;2022-12-18T05:21:38;100147.09;;;-6.12;80.22
74960;BME280;63518;49.572;1.106;2022-12-18T05:24:06;100112.91;;;-6.34;81.45
74960;BME280;63518;49.572;1.106;2022-12-18T05:26:34;100148.78;;;-6.11;80.43
74960;BME280;63518;49.572;1.106;2022-12-18T05:29:05;100142.41;;;-6.10;82.05
74960;BME280;63518;49.572;1.106;2022-12-18T05:31:34;100121.09;;;-6.20;80.09
74960;BME280;63518;49.572;1.106;2022-12-18T05:34:09;100125.47;;;-6.19;81.18
74960;BME280;63518;49.572;1.106;2022-12-18T05:36:38;100122.94;;;-6.20;79.97
74960;BME280;63518;49.572;1.106;2022-12-18T05:39:06;100117.34;;;-6.02;79.35
74960;BME280;63518;49.572;1.106;2022-12-18T05:41:35;100123.09;;;-6.30;81.11
74960;BME280;63518;49.572;1.106;2022-12-18T05:44:03;100121.25;;;-6.13;79.72
74960;BME280;63518;49.572;1.106;2022-12-18T05:46:33;100104.84;;;-6.34;79.83
74960;BME280;63518;49.572;1.106;2022-12-18T05:49:03;100107.69;;;-6.28;80.21
74960;BME280;63518;49.572;1.106;2022-12-18T05:51:31;100106.50;;;-6.25;81.07
74960;BME280;63518;49.572;1.106;2022-12-18T05:54:00;100120.63;;;-6.39;80.92
74960;BME280;63518;49.572;1.106;2022-12-18T05:56:27;100109.06;;;-6.48;80.53
74960;BME280;63518;49.572;1.106;2022-12-18T05:58:55;100110.53;;;-6.46;80.62
74960;BME280;63518;49.572;1.106;2022-12-18T06:01:27;100128.31;;;-6.12;80.47
74960;BME280;63518;49.572;1.106;2022-12-18T06:03:55;100136.53;;;-6.22;81.15
74960;BME280;63518;49.572;1.106;2022-12-18T06:06:26;100135.03;;;-6.32;80.36
74960;BME280;63518;49.572;1.106;2022-12-18T06:08:56;100140.38;;;-6.08;80.57
74960;BME280;63518;49.572;1.106;2022-12-18T06:11:26;100143.25;;;-6.26;80.78
74960;BME280;63518;49.572;1.106;2022-12-18T06:13:56;100135.00;;;-6.16;82.56
74960;BME280;63518;49.572;1.106;2022-12-18T06:16:27;100131.03;;;-6.36;81.65
74960;BME280;63518;49.572;1.106;2022-12-18T06:18:59;100091.44;;;-6.59;82.20
74960;BME280;63518;49.572;1.106;2022-12-18T06:21:29;100092.69;;;-6.22;81.78
74960;BME280;63518;49.572;1.106;2022-12-18T06:23:59;100098.78;;;-6.20;82.59
74960;BME280;63518;49.572;1.106;2022-12-18T06:26:32;100068.97;;;-6.58;82.74
74960;BME280;63518;49.572;1.106;2022-12-18T06:29:02;100097.56;;;-6.18;82.11
74960;BME280;63518;49.572;1.106;2022-12-18T06:31:33;100104.78;;;-6.10;82.23
74960;BME280;63518;49.572;1.106;2022-12-18T06:34:03;100085.38;;;-6.36;82.09
74960;BME280;63518;49.572;1.106;2022-12-18T06:36:32;100080.41;;;-6.08;82.37
74960;BME280;63518;49.572;1.106;2022-12-18T06:39:03;100074.44;;;-6.27;82.18
74960;BME280;63518;49.572;1.106;2022-12-18T06:41:36;100066.53;;;-6.20;81.33
74960;BME280;63518;49.572;1.106;2022-12-18T06:44:05;100065.50;;;-6.19;81.37
74960;BME280;63518;49.572;1.106;2022-12-18T06:46:34;100072.59;;;-6.34;81.84
74960;BME280;63518;49.572;1.106;2022-12-18T06:49:02;100048.81;;;-6.62;82.81
74960;BME280;63518;49.572;1.106;2022-12-18T06:51:33;100049.94;;;-6.40;81.91
74960;BME280;63518;49.572;1.106;2022-12-18T06:54:04;100072.97;;;-6.54;82.44
74960;BME280;63518;49.572;1.106;2022-12-18T06:56:35;100068.09;;;-6.50;82.08
74960;BME280;63518;49.572;1.106;2022-12-18T06:59:03;100053.84;;;-6.51;80.82
74960;BME280;63518;49.572;1.106;2022-12-18T07:01:31;100072.81;;;-6.44;80.51
74960;BME280;63518;49.572;1.106;2022-12-18T07:03:59;100079.88;;;-6.51;81.15
74960;BME280;63518;49.572;1.106;2022-12-18T07:06:27;100061.25;;;-6.53;81.79
74960;BME280;63518;49.572;1.106;2022-12-18T07:08:58;100067.03;;;-6.25;81.45
74960;BME280;63518;49.572;1.106;2022-12-18T07:11:26;100033.22;;;-6.58;82.86
74960;BME280;63518;49.572;1.106;2022-12-18T07:14:04;100008.50;;;-6.46;81.33
74960;BME280;63518;49.572;1.106;2022-12-18T07:16:34;100054.09;;;-6.21;80.78
74960;BME280;63518;49.572;1.106;2022-12-18T07:19:02;100057.53;;;-6.44;81.32
74960;BME280;63518;49.572;1.106;2022-12-18T07:21:32;100047.22;;;-6.24;81.61
74960;BME280;63518;49.572;1.106;2022-12-18T07:24:03;100028.69;;;-6.10;80.54
74960;BME280;63518;49.572;1.106;2022-12-18T07:26:32;100039.88;;;-6.38;80.81
74960;BME280;63518;49.572;1.106;2022-12-18T07:29:00;100051.06;;;-6.18;80.58
74960;BME280;63518;49.572;1.106;2022-12-18T07:31:31;100025.44;;;-6.45;81.52
74960;BME280;63518;49.572;1.106;2022-12-18T07:33:59;100048.78;;;-6.46;79.66
74960;BME280;63518;49.572;1.106;2022-12-18T07:36:28;100042.66;;;-6.15;79.19
74960;BME280;63518;49.572;1.106;2022-12-18T07:38:56;100018.59;;;-6.48;81.69
74960;BME280;63518;49.572;1.106;2022-12-18T07:41:25;100044.63;;;-6.09;80.80
74960;BME280;63518;49.572;1.106;2022-12-18T07:43:54;100029.94;;;-6.37;80.08
74960;BME280;63518;49.572;1.106;2022-12-18T07:46:22;100037.63;;;-6.18;80.40
74960;BME280;63518;49.572;1.106;2022-12-18T07:48:53;100033.66;;;-6.38;82.50
74960;BME280;63518;49.572;1.106;2022-12-18T07:51:21;100022.88;;;-6.30;81.17
74960;BME280;63518;49.572;1.106;2022-12-18T07:53:49;100027.13;;;-6.36;81.85
74960;BME280;63518;49.572;1.106;2022-12-18T07:56:24;100037.50;;;-6.33;80.85
74960;BME280;63518;49.572;1.106;2022-12-18T07:58:59;100036.44;;;-6.16;80.13
74960;BME280;63518;49.572;1.106;2022-12-18T08:01:28;100028.00;;;-6.04;81.45
74960;BME280;63518;49.572;1.106;2022-12-18T08:03:57;100030.94;;;-6.30;82.06
74960;BME280;63518;49.572;1.106;2022-12-18T08:06:25;100031.84;;;-6.07;81.67
74960;BME280;63518;49.572;1.106;2022-12-18T08:08:56;100040.28;;;-6.10;80.61
74960;BME280;63518;49.572;1.106;2022-12-18T08:11:27;100046.63;;;-6.03;81.81
74960;BME280;63518;49.572;1.106;2022-12-18T08:13:58;100051.31;;;-5.97;80.53
74960;BME280;63518;49.572;1.106;2022-12-18T08:16:27;100046.00;;;-5.74;81.06
74960;BME280;63518;49.572;1.106;2022-12-18T08:18:57;100045.59;;;-5.94;81.41
74960;BME280;63518;49.572;1.106;2022-12-18T08:21:28;100034.75;;;-6.17;81.02
74960;BME280;63518;49.572;1.106;2022-12-18T08:23:59;100053.53;;;-5.69;81.42
74960;BME280;63518;49.572;1.106;2022-12-18T08:26:30;100053.25;;;-5.82;80.72
74960;BME280;63518;49.572;1.106;2022-12-18T08:29:05;100046.28;;;-6.00;81.37
74960;BME280;63518;49.572;1.106;2022-12-18T08:31:34;100055.72;;;-6.04;82.44
74960;BME280;63518;49.572;1.106;2022-12-18T08:34:04;100051.06;;;-5.79;80.03
74960;BME280;63518;49.572;1.106;2022-12-18T08:36:33;100052.69;;;-6.09;81.19
74960;BME280;63518;49.572;1.106;2022-12-18T08:39:02;100043.13;;;-6.03;82.23
74960;BME280;63518;49.572;1.106;2022-12-18T08:41:30;100068.91;;;-5.86;82.15
74960;BME280;63518;49.572;1.106;2022-12-18T08:44:01;100068.91;;;-5.86;82.40
74960;BME280;63518;49.572;1.106;2022-12-18T08:46:48;100061.09;;;-6.04;81.92
74960;BME280;63518;49.572;1.106;2022-12-18T08:49:18;100056.06;;;-5.76;82.29
74960;BME280;63518;49.572;1.106;2022-12-18T08:51:46;100063.25;;;-5.37;82.36
74960;BME280;63518;49.572;1.106;2022-12-18T08:54:13;100020.28;;;-5.76;81.52
74960;BME280;63518;49.572;1.106;2022-12-18T08:56:51;100037.72;;;-5.64;83.28
74960;BME280;63518;49.572;1.106;2022-12-18T08:59:24;100047.09;;;-5.60;82.13
74960;BME280;63518;49.572;1.106;2022-12-18T09:01:57;100035.41;;;-5.75;81.35
74960;BME280;63518;49.572;1.106;2022-12-18T09:04:24;100017.56;;;-5.68;82.10
74960;BME280;63518;49.572;1.106;2022-12-18T09:06:55;100044.59;;;-5.39;81.18
74960;BME280;63518;49.572;1.106;2022-12-18T09:09:23;100041.63;;;-5.75;81.32
74960;BME280;63518;49.572;1.106;2022-12-18T09:11:51;100038.97;;;-5.52;82.26
74960;BME280;63518;49.572;1.106;2022-12-18T09:14:19;100045.25;;;-4.91;79.87
74960;BME280;63518;49.572;1.106;2022-12-18T09:16:48;100052.19;;;-4.96;79.79
74960;BME280;63518;49.572;1.106;2022-12-18T09:19:17;100051.06;;;-5.48;80.41
74960;BME280;63518;49.572;1.106;2022-12-18T09:21:53;100053.59;;;-5.23;82.18
74960;BME280;63518;49.572;1.106;2022-12-18T09:24:23;100050.63;;;-5.37;81.88
74960;BME280;63518;49.572;1.106;2022-12-18T09:26:55;100043.47;;;-5.21;82.18
74960;BME280;63518;49.572;1.106;2022-12-18T09:29:26;100053.56;;;-5.46;82.05
74960;BME280;63518;49.572;1.106;2022-12-18T09:31:54;100048.78;;;-5.13;82.65
74960;BME280;63518;49.572;1.106;2022-12-18T09:34:21;100044.47;;;-4.99;81.47
74960;BME280;63518;49.572;1.106;2022-12-18T09:36:51;100041.72;;;-5.14;82.66
74960;BME280;63518;49.572;1.106;2022-12-18T09:39:19;100047.63;;;-5.11;81.32
74960;BME280;63518;49.572;1.106;2022-12-18T09:41:50;100034.09;;;-5.03;81.51
74960;BME280;63518;49.572;1.106;2022-12-18T09:46:49;100041.59;;;-4.98;81.86
74960;BME280;63518;49.572;1.106;2022-12-18T09:49:18;100029.94;;;-4.90;81.64
74960;BME280;63518;49.572;1.106;2022-12-18T09:51:52;100032.97;;;-4.70;80.55
74960;BME280;63518;49.572;1.106;2022-12-18T09:54:26;100040.34;;;-4.72;81.34
74960;BME280;63518;49.572;1.106;2022-12-18T09:56:53;100033.25;;;-4.51;80.79
74960;BME280;63518;49.572;1.106;2022-12-18T10:01:52;100039.84;;;-4.53;82.22
74960;BME280;63518;49.572;1.106;2022-12-18T10:04:20;100061.06;;;-4.73;81.79
74960;BME280;63518;49.572;1.106;2022-12-18T10:07:01;100056.63;;;-4.66;82.95
74960;BME280;63518;49.572;1.106;2022-12-18T10:09:40;100060.91;;;-4.57;81.91
74960;BME280;63518;49.572;1.106;2022-12-18T10:22:50;100042.28;;;-4.29;81.35
74960;BME280;63518;49.572;1.106;2022-12-18T10:28:00;100052.03;;;-4.28;81.03
74960;BME280;63518;49.572;1.106;2022-12-18T10:30:34;100048.78;;;-4.23;81.65
74960;BME280;63518;49.572;1.106;2022-12-18T10:33:08;100054.19;;;-4.38;81.48
74960;BME280;63518;49.572;1.106;2022-12-18T10:35:43;100053.59;;;-4.33;81.79
74960;BME280;63518;49.572;1.106;2022-12-18T10:43:26;100037.25;;;-4.32;81.95
74960;BME280;63518;49.572;1.106;2022-12-18T10:46:22;100032.63;;;-4.23;82.75
74960;BME280;63518;49.572;1.106;2022-12-18T10:48:54;100039.84;;;-3.94;81.90
74960;BME280;63518;49.572;1.106;2022-12-18T10:51:36;100008.81;;;-4.05;82.50
74960;BME280;63518;49.572;1.106;2022-12-18T10:54:16;100006.31;;;-4.06;82.37
74960;BME280;63518;49.572;1.106;2022-12-18T10:56:49;100033.06;;;-4.05;82.18
74960;BME280;63518;49.572;1.106;2022-12-18T10:59:24;100035.47;;;-4.10;83.68
74960;BME280;63518;49.572;1.106;2022-12-18T11:01:57;100038.47;;;-3.69;81.46
74960;BME280;63518;49.572;1.106;2022-12-18T11:04:27;100036.84;;;-3.84;81.26
74960;BME280;63518;49.572;1.106;2022-12-18T11:07:05;100024.38;;;-3.85;82.41
74960;BME280;63518;49.572;1.106;2022-12-18T11:09:37;100022.25;;;-3.75;81.88
74960;BME280;63518;49.572;1.106;2022-12-18T11:14:52;100016.16;;;-3.63;82.38
74960;BME280;63518;49.572;1.106;2022-12-18T11:17:41;100018.31;;;-3.37;81.57
74960;BME280;63518;49.572;1.106;2022-12-18T11:20:35;100007.31;;;-3.14;82.38
74960;BME280;63518;49.572;1.106;2022-12-18T11:23:12;100003.91;;;-3.44;82.61
74960;BME280;63518;49.572;1.106;2022-12-18T11:25:51;100005.59;;;-3.43;83.08
74960;BME280;63518;49.572;1.106;2022-12-18T11:34:09;99972.09;;;-3.27;81.87
74960;BME280;63518;49.572;1.106;2022-12-18T11:37:00;99980.88;;;-2.97;82.14
74960;BME280;63518;49.572;1.106;2022-12-18T11:40:31;99986.09;;;-2.95;83.17
74960;BME280;63518;49.572;1.106;2022-12-18T11:42:54;99976.91;;;-3.22;83.84
74960;BME280;63518;49.572;1.106;2022-12-18T11:45:30;99981.16;;;-2.85;82.54
74960;BME280;63518;49.572;1.106;2022-12-18T11:48:25;99981.03;;;-3.05;83.29
74960;BME280;63518;49.572;1.106;2022-12-18T11:50:57;99960.97;;;-2.61;82.70
74960;BME280;63518;49.572;1.106;2022-12-18T11:53:26;99974.25;;;-2.94;82.09
74960;BME280;63518;49.572;1.106;2022-12-18T11:56:02;99959.72;;;-2.93;83.28
74960;BME280;63518;49.572;1.106;2022-12-18T11:58:46;99959.06;;;-2.95;83.35
74960;BME280;63518;49.572;1.106;2022-12-18T12:06:21;99952.69;;;-2.12;80.81
74960;BME280;63518;49.572;1.106;2022-12-18T12:17:14;99949.47;;;-2.42;81.44
74960;BME280;63518;49.572;1.106;2022-12-18T12:19:52;99943.03;;;-2.69;83.20
74960;BME280;63518;49.572;1.106;2022-12-18T12:30:35;99936.66;;;-2.20;83.15
74960;BME280;63518;49.572;1.106;2022-12-18T12:33:18;99926.81;;;-2.34;81.35
74960;BME280;63518;49.572;1.106;2022-12-18T12:36:00;99913.16;;;-2.26;81.94
74960;BME280;63518;49.572;1.106;2022-12-18T12:38:40;99909.91;;;-2.49;82.10
74960;BME280;63518;49.572;1.106;2022-12-18T12:41:20;99914.09;;;-2.40;83.76
74960;BME280;63518;49.572;1.106;2022-12-18T12:44:09;99914.75;;;-2.38;82.58
74960;BME280;63518;49.572;1.106;2022-12-18T12:46:40;99900.53;;;-2.54;82.88
74960;BME280;63518;49.572;1.106;2022-12-18T12:49:18;99906.56;;;-2.52;83.00
74960;BME280;63518;49.572;1.106;2022-12-18T12:51:53;99893.44;;;-2.55;82.75
74960;BME280;63518;49.572;1.106;2022-12-18T12:54:26;99891.66;;;-2.41;82.40
74960;BME280;63518;49.572;1.106;2022-12-18T13:04:57;99877.19;;;-2.13;81.16
74960;BME280;63518;49.572;1.106;2022-12-18T13:10:32;99860.56;;;-2.10;81.48
74960;BME280;63518;49.572;1.106;2022-12-18T13:13:02;99856.84;;;-1.96;81.63
74960;BME280;63518;49.572;1.106;2022-12-18T13:15:42;99855.81;;;-2.02;81.94
74960;BME280;63518;49.572;1.106;2022-12-18T13:25:56;99857.84;;;-2.17;83.08
74960;BME280;63518;49.572;1.106;2022-12-18T13:28:49;99843.69;;;-2.12;82.27
74960;BME280;63518;49.572;1.106;2022-12-18T13:36:54;99843.94;;;-2.01;80.84
74960;BME280;63518;49.572;1.106;2022-12-18T13:39:32;99839.69;;;-2.30;83.00
74960;BME280;63518;49.572;1.106;2022-12-18T13:44:33;99831.13;;;-2.46;82.18
74960;BME280;63518;49.572;1.106;2022-12-18T13:47:24;99818.53;;;-2.13;81.93
74960;BME280;63518;49.572;1.106;2022-12-18T13:49:56;99812.28;;;-2.07;80.74
74960;BME280;63518;49.572;1.106;2022-12-18T13:52:36;99806.31;;;-1.69;79.95
74960;BME280;63518;49.572;1.106;2022-12-18T13:55:14;99800.81;;;-2.22;80.52
74960;BME280;63518;49.572;1.106;2022-12-18T13:57:42;99792.78;;;-1.62;79.45
74960;BME280;63518;49.572;1.106;2022-12-18T14:00:27;99786.13;;;-1.86;79.62
74960;BME280;63518;49.572;1.106;2022-12-18T14:03:15;99780.63;;;-2.19;81.80
74960;BME280;63518;49.572;1.106;2022-12-18T14:06:10;99777.38;;;-1.69;79.50
74960;BME280;63518;49.572;1.106;2022-12-18T14:08:37;99776.72;;;-2.17;81.74
74960;BME280;63518;49.572;1.106;2022-12-18T14:11:07;99760.25;;;-2.22;81.63
74960;BME280;63518;49.572;1.106;2022-12-18T14:13:48;99774.03;;;-1.97;82.08
74960;BME280;63518;49.572;1.106;2022-12-18T14:16:18;99761.97;;;-1.81;82.32
74960;BME280;63518;49.572;1.106;2022-12-18T14:18:48;99772.09;;;-2.36;82.22
74960;BME280;63518;49.572;1.106;2022-12-18T14:21:26;99775.06;;;-1.85;82.11
74960;BME280;63518;49.572;1.106;2022-12-18T14:26:40;99769.19;;;-2.28;82.43
74960;BME280;63518;49.572;1.106;2022-12-18T14:29:26;99766.31;;;-1.67;81.78
74960;BME280;63518;49.572;1.106;2022-12-18T14:34:44;99755.25;;;-2.18;82.61
74960;BME280;63518;49.572;1.106;2022-12-18T14:37:15;99753.00;;;-1.88;82.93
74960;BME280;63518;49.572;1.106;2022-12-18T14:40:11;99759.84;;;-2.26;82.92
74960;BME280;63518;49.572;1.106;2022-12-18T14:42:39;99753.22;;;-1.97;82.92
74960;BME280;63518;49.572;1.106;2022-12-18T14:48:05;99742.81;;;-2.06;83.04
74960;BME280;63518;49.572;1.106;2022-12-18T14:50:32;99753.63;;;-2.06;83.92
74960;BME280;63518;49.572;1.106;2022-12-18T14:53:01;99747.78;;;-2.30;83.04
74960;BME280;63518;49.572;1.106;2022-12-18T14:55:35;99746.34;;;-1.79;83.29
74960;BME280;63518;49.572;1.106;2022-12-18T14:58:10;99748.63;;;-1.89;83.40
74960;BME280;63518;49.572;1.106;2022-12-18T15:00:43;99749.03;;;-2.12;83.40
74960;BME280;63518;49.572;1.106;2022-12-18T15:03:12;99754.22;;;-2.11;83.49
74960;BME280;63518;49.572;1.106;2022-12-18T15:05:42;99745.09;;;-1.83;83.93
74960;BME280;63518;49.572;1.106;2022-12-18T15:13:57;99753.63;;;-1.80;83.38
74960;BME280;63518;49.572;1.106;2022-12-18T15:16:28;99748.84;;;-1.91;83.63
74960;BME280;63518;49.572;1.106;2022-12-18T15:19:02;99749.03;;;-1.73;83.62
74960;BME280;63518;49.572;1.106;2022-12-18T15:21:32;99745.53;;;-1.93;82.95
74960;BME280;63518;49.572;1.106;2022-12-18T15:23:59;99749.69;;;-1.84;84.16
74960;BME280;63518;49.572;1.106;2022-12-18T15:26:26;99748.00;;;-1.98;84.98
74960;BME280;63518;49.572;1.106;2022-12-18T15:29:02;99751.56;;;-1.91;83.96
74960;BME280;63518;49.572;1.106;2022-12-18T15:31:36;99751.16;;;-1.95;85.05
74960;BME280;63518;49.572;1.106;2022-12-18T15:37:01;99756.94;;;-1.64;83.57